createdAt,value
2019-05-06T00:00:36.567Z,8.00
2019-05-06T00:01:36.454Z,12.00
2019-05-06T00:02:36.453Z,12.00
2019-05-06T00:03:36.433Z,16.00
2019-05-06T00:04:36.426Z,20.00
2019-05-06T00:05:36.419Z,28.00
2019-05-06T00:06:36.451Z,36.00
2019-05-06T00:07:36.393Z,44.00
2019-05-06T00:08:36.384Z,52.00
2019-05-06T00:09:36.378Z,60.00
2019-05-06T00:10:36.362Z,68.00
2019-05-06T00:11:36.353Z,76.00
2019-05-06T00:12:36.501Z,92.00
2019-05-06T00:13:36.327Z,108.00
2019-05-06T00:14:36.318Z,128.00
2019-05-06T00:15:36.315Z,144.00
2019-05-06T00:16:36.299Z,168.00
2019-05-06T00:17:36.285Z,192.00
2019-05-06T00:18:36.323Z,224.00
2019-05-06T00:19:36.264Z,252.00
2019-05-06T00:20:36.259Z,288.00
2019-05-06T00:21:36.244Z,320.00
2019-05-06T00:22:36.231Z,356.00
2019-05-06T00:23:38.176Z,392.00
2019-05-06T00:24:36.317Z,432.00
2019-05-06T00:25:36.203Z,476.00
2019-05-06T00:26:36.192Z,520.00
2019-05-06T00:27:36.180Z,572.00
2019-05-06T00:28:36.174Z,624.00
2019-05-06T00:29:36.160Z,684.00
2019-05-06T00:30:36.303Z,748.00
2019-05-06T00:31:36.137Z,816.00
2019-05-06T00:32:36.130Z,880.00
2019-05-06T00:33:36.120Z,948.00
2019-05-06T00:34:36.106Z,1024.00
2019-05-06T00:35:36.095Z,1112.00
2019-05-06T00:36:36.186Z,1224.00
2019-05-06T00:37:36.071Z,1436.00
2019-05-06T00:38:36.082Z,1656.00
2019-05-06T00:39:36.052Z,1800.00
2019-05-06T00:40:36.037Z,1920.00
2019-05-06T00:41:36.646Z,2080.00
2019-05-06T00:42:36.070Z,2264.00
2019-05-06T00:43:36.013Z,2568.00
2019-05-06T00:44:35.999Z,2852.00
2019-05-06T00:45:35.990Z,3092.00
2019-05-06T00:46:35.975Z,3364.00
2019-05-06T00:47:35.969Z,3676.00
2019-05-06T00:48:36.108Z,3960.00
2019-05-06T00:49:35.945Z,4184.00
2019-05-06T00:50:35.938Z,4428.00
2019-05-06T00:51:35.925Z,4816.00
2019-05-06T00:52:35.917Z,5204.00
2019-05-06T00:53:35.904Z,5448.00
2019-05-06T00:54:35.940Z,5856.00
2019-05-06T00:55:35.881Z,6172.00
2019-05-06T00:56:35.877Z,6620.00
2019-05-06T00:57:35.864Z,7048.00
2019-05-06T00:58:35.850Z,7228.00
2019-05-06T00:59:35.840Z,7564.00
2019-05-06T01:00:35.879Z,7992.00
2019-05-06T01:01:35.818Z,8252.00
2019-05-06T01:02:35.814Z,8436.00
2019-05-06T01:03:35.800Z,8816.00
2019-05-06T01:04:35.789Z,9112.00
2019-05-06T01:05:35.774Z,9532.00
2019-05-06T01:06:36.042Z,10052.00
2019-05-06T01:07:35.755Z,10400.00
2019-05-06T01:08:35.744Z,10704.00
2019-05-06T01:09:35.731Z,11328.00
2019-05-06T01:10:35.724Z,12388.00
2019-05-06T01:11:35.709Z,16704.00
2019-05-06T01:12:35.748Z,25120.00
2019-05-06T01:13:35.691Z,29696.00
2019-05-06T01:14:35.680Z,26432.00
2019-05-06T01:15:35.674Z,22592.00
2019-05-06T01:16:35.660Z,26688.00
2019-05-06T01:17:35.646Z,35424.00
2019-05-06T01:19:35.677Z,44256.00
2019-05-06T01:20:35.614Z,44576.00
2019-05-06T01:21:35.604Z,41792.00
2019-05-06T01:22:35.592Z,40288.00
2019-05-06T01:23:35.582Z,44256.00
2019-05-06T01:24:35.576Z,49600.00
2019-05-06T01:25:35.713Z,51328.00
2019-05-06T01:26:35.549Z,49760.00
2019-05-06T01:27:35.540Z,47488.00
2019-05-06T01:28:35.531Z,46688.00
2019-05-06T01:29:35.521Z,44704.00
2019-05-06T01:30:35.510Z,42688.00
2019-05-06T01:31:42.748Z,45024.00
2019-05-06T01:32:36.582Z,48352.00
2019-05-06T01:33:35.475Z,49664.00
2019-05-06T01:34:35.464Z,48544.00
2019-05-06T01:35:35.458Z,46912.00
2019-05-06T01:36:35.448Z,47904.00
2019-05-06T01:37:35.536Z,49408.00
2019-05-06T01:38:35.432Z,49792.00
2019-05-06T01:39:35.420Z,51424.00
2019-05-06T01:40:35.408Z,54496.00
2019-05-06T01:41:35.393Z,55776.00
2019-05-06T01:42:35.381Z,55552.00
2019-05-06T01:43:35.525Z,58880.00
2019-05-06T01:44:35.366Z,65408.00
2019-05-06T01:45:35.360Z,70432.00
2019-05-06T01:46:35.352Z,69984.00
2019-05-06T01:47:35.340Z,65920.00
2019-05-06T01:48:35.326Z,65408.00
2019-05-06T01:49:35.414Z,69472.00
2019-05-06T01:50:35.302Z,72224.00
2019-05-06T01:51:35.293Z,71392.00
2019-05-06T01:52:35.284Z,69344.00
2019-05-06T01:53:35.271Z,65152.00
2019-05-06T01:54:35.261Z,61376.00
2019-05-06T01:55:35.304Z,61024.00
2019-05-06T01:56:35.240Z,65824.00
2019-05-06T01:57:35.227Z,69792.00
2019-05-06T01:58:35.223Z,69024.00
2019-05-06T01:59:35.208Z,64832.00
2019-05-06T02:00:35.202Z,62464.00
2019-05-06T02:01:35.341Z,68896.00
2019-05-06T02:02:35.178Z,76384.00
2019-05-06T02:03:35.171Z,74752.00
2019-05-06T02:04:35.155Z,66144.00
2019-05-06T02:05:35.148Z,57536.00
2019-05-06T02:06:35.142Z,52032.00
2019-05-06T02:07:35.180Z,49792.00
2019-05-06T02:08:35.121Z,51616.00
2019-05-06T02:09:35.108Z,54688.00
2019-05-06T02:10:38.055Z,55808.00
2019-05-06T02:11:35.090Z,57856.00
2019-05-06T02:12:35.086Z,57664.00
2019-05-06T02:13:35.176Z,53344.00
2019-05-06T02:14:35.062Z,52320.00
2019-05-06T02:15:35.061Z,53568.00
2019-05-06T02:16:35.043Z,51552.00
2019-05-06T02:17:35.031Z,52000.00
2019-05-06T02:18:35.023Z,52672.00
2019-05-06T02:19:35.265Z,49696.00
2019-05-06T02:20:35.002Z,48672.00
2019-05-06T02:21:34.997Z,49312.00
2019-05-06T02:22:34.981Z,48960.00
2019-05-06T02:23:34.972Z,48544.00
2019-05-06T02:24:34.963Z,49888.00
2019-05-06T02:25:35.066Z,50816.00
2019-05-06T02:26:34.944Z,49696.00
2019-05-06T02:27:34.931Z,48704.00
2019-05-06T02:28:34.919Z,49280.00
2019-05-06T02:29:34.914Z,48704.00
2019-05-06T02:30:36.573Z,47328.00
2019-05-06T02:31:35.513Z,47744.00
2019-05-06T02:32:36.006Z,45664.00
2019-05-06T02:33:35.664Z,43296.00
2019-05-06T02:34:36.343Z,42720.00
2019-05-06T02:35:35.052Z,44544.00
2019-05-06T02:36:34.841Z,47616.00
2019-05-06T02:37:35.354Z,48064.00
2019-05-06T02:38:45.927Z,47712.00
2019-05-06T02:39:59.623Z,49120.00
2019-05-06T02:40:59.632Z,49152.00
2019-05-06T02:41:59.600Z,46592.00
2019-05-06T02:43:02.949Z,44416.00
2019-05-06T02:43:59.578Z,45120.00
2019-05-06T02:44:59.575Z,45568.00
2019-05-06T02:45:59.573Z,47008.00
2019-05-06T02:47:02.701Z,47488.00
2019-05-06T02:47:59.544Z,44576.00
2019-05-06T02:48:59.646Z,43264.00
2019-05-06T02:49:59.527Z,45664.00
2019-05-06T02:50:59.521Z,46752.00
2019-05-06T02:51:59.506Z,45728.00
2019-05-06T02:53:02.015Z,45792.00
2019-05-06T02:53:59.486Z,44992.00
2019-05-06T02:54:59.726Z,44896.00
2019-05-06T02:55:59.467Z,45952.00
2019-05-06T02:56:59.459Z,47104.00
2019-05-06T02:57:59.451Z,44128.00
2019-05-06T02:58:59.442Z,42720.00
2019-05-06T02:59:59.438Z,44640.00
2019-05-06T03:01:59.463Z,47776.00
2019-05-06T03:02:59.398Z,49600.00
2019-05-06T03:03:59.392Z,48704.00
2019-05-06T03:04:59.380Z,45216.00
2019-05-06T03:05:59.375Z,44416.00
2019-05-06T03:06:59.362Z,44544.00
2019-05-06T03:08:59.396Z,44640.00
2019-05-06T03:09:59.337Z,45632.00
2019-05-06T03:10:59.333Z,46688.00
2019-05-06T03:11:59.319Z,46272.00
2019-05-06T03:12:59.307Z,43360.00
2019-05-06T03:13:59.398Z,43168.00
2019-05-06T03:14:59.292Z,46016.00
2019-05-06T03:15:59.278Z,45792.00
2019-05-06T03:16:59.269Z,43232.00
2019-05-06T03:17:59.295Z,43936.00
2019-05-06T03:19:03.414Z,45184.00
2019-05-06T03:19:59.244Z,43936.00
2019-05-06T03:20:59.260Z,45024.00
2019-05-06T03:21:59.218Z,42848.00
2019-05-06T03:22:59.212Z,41696.00
2019-05-06T03:23:59.214Z,44736.00
2019-05-06T03:24:59.290Z,45056.00
2019-05-06T03:25:59.183Z,43104.00
2019-05-06T03:26:59.190Z,43136.00
2019-05-06T03:27:59.162Z,44608.00
2019-05-06T03:28:59.158Z,45376.00
2019-05-06T03:29:59.177Z,44896.00
2019-05-06T03:30:59.244Z,45088.00
2019-05-06T03:31:59.133Z,45568.00
2019-05-06T03:33:31.275Z,46592.00
2019-05-06T03:34:49.498Z,44864.00
2019-05-06T03:35:42.155Z,41952.00
2019-05-06T03:36:49.377Z,40992.00
2019-05-06T03:37:48.844Z,41056.00
2019-05-06T03:38:48.835Z,41024.00
2019-05-06T03:39:48.827Z,39808.00
2019-05-06T03:40:48.820Z,41888.00
2019-05-06T03:41:48.855Z,41920.00
2019-05-06T03:42:48.798Z,39488.00
2019-05-06T03:43:48.785Z,39936.00
2019-05-06T03:44:48.776Z,39680.00
2019-05-06T03:45:48.770Z,38176.00
2019-05-06T03:46:48.760Z,38656.00
2019-05-06T03:47:48.998Z,38976.00
2019-05-06T03:48:48.739Z,40128.00
2019-05-06T03:49:50.151Z,38816.00
2019-05-06T03:50:48.719Z,36512.00
2019-05-06T03:51:48.704Z,37152.00
2019-05-06T03:52:48.694Z,37312.00
2019-05-06T03:53:48.741Z,35936.00
2019-05-06T03:54:48.676Z,36000.00
2019-05-06T03:55:48.668Z,38688.00
2019-05-06T03:56:48.657Z,39104.00
2019-05-06T03:57:48.650Z,36704.00
2019-05-06T03:58:48.636Z,36352.00
2019-05-06T03:59:48.678Z,37120.00
2019-05-06T04:00:48.626Z,34208.00
2019-05-06T04:01:48.607Z,30944.00
2019-05-06T04:02:48.601Z,32320.00
2019-05-06T04:03:53.790Z,34336.00
2019-05-06T04:04:55.955Z,33760.00
2019-05-06T04:06:13.951Z,32256.00
2019-05-06T04:07:13.989Z,31936.00
2019-05-06T04:08:13.358Z,35104.00
2019-05-06T04:09:13.484Z,36896.00
2019-05-06T04:10:13.854Z,36704.00
2019-05-06T04:11:13.791Z,35168.00
2019-05-06T04:12:13.329Z,34528.00
2019-05-06T04:13:13.638Z,33728.00
2019-05-06T04:14:14.093Z,32224.00
2019-05-06T04:15:14.301Z,26080.00
2019-05-06T04:16:13.908Z,18520.00
2019-05-06T04:17:13.308Z,12044.00
2019-05-06T04:18:13.258Z,9496.00
2019-05-06T04:19:13.296Z,9052.00
2019-05-06T04:20:13.239Z,8856.00
2019-05-06T04:21:16.420Z,8704.00
2019-05-06T04:22:13.221Z,8556.00
2019-05-06T04:23:13.521Z,8428.00
2019-05-06T04:24:13.390Z,8316.00
2019-05-06T04:25:14.047Z,8220.00
2019-05-06T04:26:13.518Z,8116.00
2019-05-06T04:27:13.618Z,8016.00
2019-05-06T04:28:13.164Z,7928.00
2019-05-06T04:29:13.262Z,7824.00
2019-05-06T04:30:13.653Z,7720.00
2019-05-06T04:31:13.396Z,7616.00
2019-05-06T04:32:14.002Z,7512.00
2019-05-06T04:33:17.318Z,7428.00
2019-05-06T04:34:18.261Z,7344.00
2019-05-06T04:35:37.908Z,7232.00
2019-05-06T04:36:37.905Z,7156.00
2019-05-06T04:37:37.888Z,7092.00
2019-05-06T04:38:37.943Z,7032.00
2019-05-06T04:39:37.868Z,6968.00
2019-05-06T04:40:37.865Z,6916.00
2019-05-06T04:41:37.852Z,6848.00
2019-05-06T04:42:37.873Z,6772.00
2019-05-06T04:43:37.840Z,6728.00
2019-05-06T04:44:37.925Z,6668.00
2019-05-06T04:45:37.810Z,6616.00
2019-05-06T04:46:37.799Z,6564.00
2019-05-06T04:47:37.794Z,6504.00
2019-05-06T04:48:37.781Z,6464.00
2019-05-06T04:49:37.775Z,6404.00
2019-05-06T04:50:38.159Z,6356.00
2019-05-06T04:51:37.751Z,6300.00
2019-05-06T04:52:37.741Z,6248.00
2019-05-06T04:53:37.727Z,6192.00
2019-05-06T04:54:37.725Z,6136.00
2019-05-06T04:55:37.715Z,6088.00
2019-05-06T04:56:37.763Z,6040.00
2019-05-06T04:57:37.690Z,5996.00
2019-05-06T04:58:37.680Z,5952.00
2019-05-06T04:59:37.665Z,5916.00
2019-05-06T05:00:37.673Z,5876.00
2019-05-06T05:01:37.765Z,5832.00
2019-05-06T05:02:37.640Z,5780.00
2019-05-06T05:03:37.629Z,5740.00
2019-05-06T05:04:37.625Z,5696.00
2019-05-06T05:05:37.613Z,5664.00
2019-05-06T05:06:37.742Z,5632.00
2019-05-06T05:07:37.588Z,5584.00
2019-05-06T05:08:37.611Z,5552.00
2019-05-06T05:09:37.569Z,5500.00
2019-05-06T05:10:37.557Z,5456.00
2019-05-06T05:11:37.560Z,5412.00
2019-05-06T05:12:37.589Z,5372.00
2019-05-06T05:13:37.521Z,5328.00
2019-05-06T05:14:37.518Z,5292.00
2019-05-06T05:15:37.507Z,5256.00
2019-05-06T05:16:37.494Z,5220.00
2019-05-06T05:17:37.482Z,5180.00
2019-05-06T05:18:37.525Z,5148.00
2019-05-06T05:19:37.467Z,5108.00
2019-05-06T05:20:41.934Z,5068.00
2019-05-06T05:22:02.849Z,5020.00
2019-05-06T05:23:02.366Z,4980.00
2019-05-06T05:24:02.393Z,4948.00
2019-05-06T05:25:03.417Z,4908.00
2019-05-06T05:26:02.933Z,4876.00
2019-05-06T05:27:03.202Z,4836.00
2019-05-06T05:28:02.280Z,4808.00
2019-05-06T05:30:02.337Z,4740.00
2019-05-06T05:31:03.070Z,4696.00
2019-05-06T05:32:02.292Z,4664.00
2019-05-06T05:33:02.604Z,4624.00
2019-05-06T05:34:02.319Z,4572.00
2019-05-06T05:35:02.240Z,4528.00
2019-05-06T05:36:02.273Z,4452.00
2019-05-06T05:37:03.063Z,4248.00
2019-05-06T05:38:03.022Z,3936.00
2019-05-06T05:39:03.327Z,3752.00
2019-05-06T05:40:03.036Z,3720.00
2019-05-06T05:41:03.112Z,3712.00
2019-05-06T05:42:02.949Z,3700.00
2019-05-06T05:43:02.872Z,3692.00
2019-05-06T05:44:02.462Z,3684.00
2019-05-06T05:45:02.706Z,3668.00
2019-05-06T05:46:02.958Z,3660.00
2019-05-06T05:48:02.865Z,3636.00
2019-05-06T05:49:02.888Z,3620.00
2019-05-06T05:50:03.029Z,3604.00
2019-05-06T05:51:03.346Z,3584.00
2019-05-06T05:52:03.381Z,3564.00
2019-05-06T05:53:02.557Z,3544.00
2019-05-06T05:54:02.294Z,3532.00
2019-05-06T05:55:02.766Z,3512.00
2019-05-06T05:56:02.586Z,3496.00
2019-05-06T05:57:02.455Z,3484.00
2019-05-06T05:58:03.220Z,3472.00
2019-05-06T05:59:03.241Z,3464.00
2019-05-06T06:00:03.958Z,3452.00
2019-05-06T06:01:04.130Z,3448.00
2019-05-06T06:02:03.794Z,3444.00
2019-05-06T06:03:02.872Z,3440.00
2019-05-06T06:04:03.057Z,3440.00
2019-05-06T06:05:02.566Z,3436.00
2019-05-06T06:06:03.150Z,3432.00
2019-05-06T06:07:02.694Z,3424.00
2019-05-06T06:08:02.935Z,3420.00
2019-05-06T06:09:03.128Z,3416.00
2019-05-06T06:10:02.741Z,3412.00
2019-05-06T06:11:04.126Z,3408.00
2019-05-06T06:12:02.753Z,3396.00
2019-05-06T06:13:02.191Z,3384.00
2019-05-06T06:14:03.013Z,3376.00
2019-05-06T06:15:02.257Z,3372.00
2019-05-06T06:16:02.868Z,3368.00
2019-05-06T06:17:02.113Z,3368.00
2019-05-06T06:18:03.016Z,3364.00
2019-05-06T06:19:03.235Z,3364.00
2019-05-06T06:20:02.635Z,3360.00
2019-05-06T06:21:16.988Z,3356.00
2019-05-06T06:22:02.858Z,3352.00
2019-05-06T06:23:02.955Z,3348.00
2019-05-06T06:24:02.803Z,3344.00
2019-05-06T06:25:04.182Z,3336.00
2019-05-06T06:26:03.878Z,3328.00
2019-05-06T06:27:03.115Z,3320.00
2019-05-06T06:28:02.726Z,3316.00
2019-05-06T06:29:03.294Z,3304.00
2019-05-06T06:30:02.410Z,3300.00
2019-05-06T06:31:03.052Z,3292.00
2019-05-06T06:32:03.168Z,3284.00
2019-05-06T06:33:02.554Z,3276.00
2019-05-06T06:34:02.054Z,3268.00
2019-05-06T06:35:10.816Z,3260.00
2019-05-06T06:36:02.952Z,3252.00
2019-05-06T06:37:02.594Z,3248.00
2019-05-06T06:38:02.728Z,3236.00
2019-05-06T06:39:02.100Z,3232.00
2019-05-06T06:40:02.495Z,3220.00
2019-05-06T06:41:02.694Z,3212.00
2019-05-06T06:42:02.854Z,3208.00
2019-05-06T06:43:02.169Z,3200.00
2019-05-06T06:44:02.262Z,3196.00
2019-05-06T06:45:03.533Z,3188.00
2019-05-06T06:46:02.467Z,3184.00
2019-05-06T06:47:02.098Z,3176.00
2019-05-06T06:48:03.073Z,3172.00
2019-05-06T06:49:03.211Z,3160.00
2019-05-06T06:50:02.845Z,3160.00
2019-05-06T06:51:03.483Z,3148.00
2019-05-06T06:52:02.696Z,3144.00
2019-05-06T06:53:03.097Z,3136.00
2019-05-06T06:54:02.426Z,3136.00
2019-05-06T06:55:02.359Z,3136.00
2019-05-06T06:56:02.017Z,3128.00
2019-05-06T06:57:08.540Z,3124.00
2019-05-06T06:58:26.103Z,3120.00
2019-05-06T06:59:26.140Z,3120.00
2019-05-06T07:00:26.080Z,3112.00
2019-05-06T07:01:26.070Z,3112.00
2019-05-06T07:02:26.063Z,3112.00
2019-05-06T07:03:26.048Z,3108.00
2019-05-06T07:04:26.043Z,3104.00
2019-05-06T07:05:28.436Z,3096.00
2019-05-06T07:06:26.018Z,3092.00
2019-05-06T07:07:40.232Z,3092.00
2019-05-06T07:08:36.545Z,3088.00
2019-05-06T07:09:52.597Z,3084.00
2019-05-06T07:11:52.599Z,3076.00
2019-05-06T07:12:53.179Z,3076.00
2019-05-06T07:13:52.910Z,3068.00
2019-05-06T07:14:52.314Z,3064.00
2019-05-06T07:15:52.017Z,3060.00
2019-05-06T07:16:53.224Z,3064.00
2019-05-06T07:17:52.452Z,3056.00
2019-05-06T07:18:52.611Z,3056.00
2019-05-06T07:19:52.680Z,3052.00
2019-05-06T07:20:52.601Z,3052.00
2019-05-06T07:21:52.267Z,3048.00
2019-05-06T07:23:52.868Z,3052.00
2019-05-06T07:24:52.753Z,3048.00
2019-05-06T07:25:50.632Z,3048.00
2019-05-06T07:26:52.450Z,3048.00
2019-05-06T07:27:52.791Z,3044.00
2019-05-06T07:28:52.632Z,3044.00
2019-05-06T07:29:52.228Z,3044.00
2019-05-06T07:30:52.205Z,3044.00
2019-05-06T07:31:50.568Z,3040.00
2019-05-06T07:32:52.635Z,3036.00
2019-05-06T07:33:52.238Z,3032.00
2019-05-06T07:34:52.991Z,3032.00
2019-05-06T07:35:52.663Z,3032.00
2019-05-06T07:36:52.423Z,3032.00
2019-05-06T07:37:52.915Z,3028.00
2019-05-06T07:38:52.746Z,3028.00
2019-05-06T07:39:52.934Z,3024.00
2019-05-06T07:40:52.889Z,3024.00
2019-05-06T07:41:53.293Z,3028.00
2019-05-06T07:42:52.571Z,3028.00
2019-05-06T07:43:52.582Z,3024.00
2019-05-06T07:44:52.926Z,3024.00
2019-05-06T07:45:53.055Z,3016.00
2019-05-06T07:46:52.464Z,3016.00
2019-05-06T07:47:52.904Z,3016.00
2019-05-06T07:48:51.869Z,3016.00
2019-05-06T07:49:52.954Z,3012.00
2019-05-06T07:50:52.060Z,3016.00
2019-05-06T07:51:50.352Z,3016.00
2019-05-06T07:52:50.342Z,3012.00
2019-05-06T07:53:52.348Z,3012.00
2019-05-06T07:54:50.320Z,3012.00
2019-05-06T07:55:52.386Z,3012.00
2019-05-06T07:56:52.457Z,3008.00
2019-05-06T07:57:52.431Z,3008.00
2019-05-06T07:58:52.757Z,3008.00
2019-05-06T07:59:52.352Z,3004.00
2019-05-06T08:00:52.361Z,3004.00
2019-05-06T08:01:50.244Z,3004.00
2019-05-06T08:02:52.008Z,3004.00
2019-05-06T08:03:50.221Z,3004.00
2019-05-06T08:04:50.212Z,3000.00
2019-05-06T08:05:57.984Z,3004.00
2019-05-06T08:07:15.006Z,3004.00
2019-05-06T08:08:15.197Z,3004.00
2019-05-06T08:09:14.987Z,3000.00
2019-05-06T08:10:14.990Z,3000.00
2019-05-06T08:11:14.958Z,3000.00
2019-05-06T08:12:14.950Z,3000.00
2019-05-06T08:13:14.940Z,3000.00
2019-05-06T08:14:14.980Z,3000.00
2019-05-06T08:15:14.923Z,3000.00
2019-05-06T08:16:14.911Z,2996.00
2019-05-06T08:17:14.904Z,2992.00
2019-05-06T08:18:14.891Z,2988.00
2019-05-06T08:19:14.878Z,2992.00
2019-05-06T08:20:14.918Z,2988.00
2019-05-06T08:21:14.858Z,2992.00
2019-05-06T08:22:14.856Z,2992.00
2019-05-06T08:23:14.837Z,2996.00
2019-05-06T08:24:14.826Z,2992.00
2019-05-06T08:25:14.821Z,2988.00
2019-05-06T08:27:14.855Z,2988.00
2019-05-06T08:28:14.787Z,2988.00
2019-05-06T08:29:16.046Z,2984.00
2019-05-06T08:30:14.834Z,2980.00
2019-05-06T08:31:14.756Z,2980.00
2019-05-06T08:32:14.897Z,2980.00
2019-05-06T08:33:14.733Z,2984.00
2019-05-06T08:34:14.724Z,2980.00
2019-05-06T08:35:14.720Z,2984.00
2019-05-06T08:36:15.130Z,2984.00
2019-05-06T08:37:14.692Z,2984.00
2019-05-06T08:38:14.733Z,2984.00
2019-05-06T08:39:14.678Z,2980.00
2019-05-06T08:40:14.663Z,2980.00
2019-05-06T08:41:14.658Z,2980.00
2019-05-06T08:42:14.657Z,2976.00
2019-05-06T08:43:14.637Z,2972.00
2019-05-06T08:44:14.672Z,2968.00
2019-05-06T08:45:14.611Z,2968.00
2019-05-06T08:46:14.603Z,2968.00
2019-05-06T08:47:14.592Z,2968.00
2019-05-06T08:48:14.581Z,2964.00
2019-05-06T08:49:14.571Z,2960.00
2019-05-06T08:50:14.712Z,2956.00
2019-05-06T08:51:14.553Z,2952.00
2019-05-06T08:52:14.543Z,2956.00
2019-05-06T08:53:14.547Z,2944.00
2019-05-06T08:54:14.522Z,2944.00
2019-05-06T08:55:14.511Z,2940.00
2019-05-06T08:56:16.372Z,2940.00
2019-05-06T08:57:14.501Z,2936.00
2019-05-06T08:58:14.485Z,2932.00
2019-05-06T08:59:14.476Z,2932.00
2019-05-06T09:00:14.462Z,2928.00
2019-05-06T09:01:14.453Z,2928.00
2019-05-06T09:02:14.490Z,2924.00
2019-05-06T09:03:14.484Z,2920.00
2019-05-06T09:04:16.251Z,2924.00
2019-05-06T09:05:14.412Z,2916.00
2019-05-06T09:06:26.519Z,2920.00
2019-05-06T09:07:39.349Z,2916.00
2019-05-06T09:08:39.340Z,2916.00
2019-05-06T09:09:39.340Z,2912.00
2019-05-06T09:10:39.314Z,2916.00
2019-05-06T09:11:39.309Z,2912.00
2019-05-06T09:12:39.397Z,2912.00
2019-05-06T09:13:39.289Z,2904.00
2019-05-06T09:14:39.275Z,2904.00
2019-05-06T09:15:39.262Z,2908.00
2019-05-06T09:16:39.255Z,2904.00
2019-05-06T09:17:39.293Z,2904.00
2019-05-06T09:18:39.233Z,2900.00
2019-05-06T09:19:39.219Z,2904.00
2019-05-06T09:20:39.210Z,2896.00
2019-05-06T09:21:42.688Z,2892.00
2019-05-06T09:23:39.280Z,2888.00
2019-05-06T09:24:39.166Z,2888.00
2019-05-06T09:25:39.174Z,2888.00
2019-05-06T09:26:39.152Z,2884.00
2019-05-06T09:27:39.140Z,2880.00
2019-05-06T09:28:39.123Z,2884.00
2019-05-06T09:29:39.194Z,2872.00
2019-05-06T09:30:39.104Z,2872.00
2019-05-06T09:31:39.092Z,2868.00
2019-05-06T09:32:39.083Z,2864.00
2019-05-06T09:33:39.068Z,2860.00
2019-05-06T09:34:39.060Z,2860.00
2019-05-06T09:35:39.197Z,2860.00
2019-05-06T09:36:48.568Z,2856.00
2019-05-06T09:37:42.754Z,2856.00
2019-05-06T09:38:39.016Z,2848.00
2019-05-06T09:39:39.005Z,2852.00
2019-05-06T09:40:38.997Z,2852.00
2019-05-06T09:41:39.137Z,2852.00
2019-05-06T09:42:38.975Z,2852.00
2019-05-06T09:43:38.959Z,2844.00
2019-05-06T09:44:38.953Z,2840.00
2019-05-06T09:45:38.946Z,2836.00
2019-05-06T09:46:38.931Z,2832.00
2019-05-06T09:47:39.018Z,2828.00
2019-05-06T09:48:38.908Z,2828.00
2019-05-06T09:49:38.902Z,2828.00
2019-05-06T09:50:38.906Z,2832.00
2019-05-06T09:51:38.879Z,2832.00
2019-05-06T09:52:38.868Z,2832.00
2019-05-06T09:53:39.005Z,2828.00
2019-05-06T09:54:38.862Z,2828.00
2019-05-06T09:55:38.831Z,2828.00
2019-05-06T09:56:38.822Z,2828.00
2019-05-06T09:57:38.810Z,2824.00
2019-05-06T09:58:38.805Z,2824.00
2019-05-06T09:59:38.839Z,2820.00
2019-05-06T10:00:38.786Z,2820.00
2019-05-06T10:01:38.772Z,2812.00
2019-05-06T10:02:38.759Z,2808.00
2019-05-06T10:03:38.745Z,2808.00
2019-05-06T10:04:38.786Z,2808.00
2019-05-06T10:05:39.941Z,2808.00
2019-05-06T10:06:38.725Z,2812.00
2019-05-06T10:07:38.712Z,2812.00
2019-05-06T10:08:38.693Z,2816.00
2019-05-06T10:09:38.682Z,2812.00
2019-05-06T10:10:52.491Z,2808.00
2019-05-06T10:11:42.203Z,2808.00
2019-05-06T10:12:38.653Z,2808.00
2019-05-06T10:13:38.646Z,2808.00
2019-05-06T10:14:38.633Z,2800.00
2019-05-06T10:15:38.618Z,2804.00
2019-05-06T10:16:39.010Z,2800.00
2019-05-06T10:17:38.599Z,2800.00
2019-05-06T10:18:38.588Z,2796.00
2019-05-06T10:19:38.587Z,2796.00
2019-05-06T10:20:38.570Z,2796.00
2019-05-06T10:21:38.557Z,2792.00
2019-05-06T10:24:38.572Z,2796.00
2019-05-06T10:25:38.520Z,2796.00
2019-05-06T10:26:38.505Z,2796.00
2019-05-06T10:27:38.490Z,2796.00
2019-05-06T10:28:38.482Z,2800.00
2019-05-06T10:29:38.473Z,2796.00
2019-05-06T10:30:38.514Z,2796.00
2019-05-06T10:31:38.455Z,2796.00
2019-05-06T10:32:38.446Z,2796.00
2019-05-06T10:33:38.432Z,2792.00
2019-05-06T10:34:38.422Z,2792.00
2019-05-06T10:35:38.415Z,2792.00
2019-05-06T10:36:38.548Z,2792.00
2019-05-06T10:37:38.393Z,2792.00
2019-05-06T10:38:38.381Z,2788.00
2019-05-06T10:39:38.376Z,2780.00
2019-05-06T10:40:55.130Z,2776.00
2019-05-06T10:42:03.209Z,2776.00
2019-05-06T10:43:03.209Z,2768.00
2019-05-06T10:44:03.243Z,2764.00
2019-05-06T10:45:03.184Z,2764.00
2019-05-06T10:46:04.094Z,2756.00
2019-05-06T10:47:03.210Z,2752.00
2019-05-06T10:48:03.154Z,2752.00
2019-05-06T10:49:03.147Z,2752.00
2019-05-06T10:50:03.130Z,2748.00
2019-05-06T10:51:03.576Z,2744.00
2019-05-06T10:52:03.110Z,2740.00
2019-05-06T10:53:03.251Z,2736.00
2019-05-06T10:54:03.331Z,2736.00
2019-05-06T10:55:03.461Z,2728.00
2019-05-06T10:56:03.084Z,2732.00
2019-05-06T10:57:03.060Z,2724.00
2019-05-06T10:58:03.050Z,2716.00
2019-05-06T10:59:03.088Z,2720.00
2019-05-06T11:00:03.031Z,2716.00
2019-05-06T11:01:03.620Z,2712.00
2019-05-06T11:02:05.417Z,2704.00
2019-05-06T11:03:02.997Z,2708.00
2019-05-06T11:04:03.042Z,2696.00
2019-05-06T11:05:03.101Z,2696.00
2019-05-06T11:06:02.969Z,2696.00
2019-05-06T11:07:03.997Z,2684.00
2019-05-06T11:08:02.944Z,2688.00
2019-05-06T11:09:03.343Z,2680.00
2019-05-06T11:10:03.039Z,2676.00
2019-05-06T11:11:14.803Z,2672.00
2019-05-06T11:12:27.716Z,2668.00
2019-05-06T11:13:27.709Z,2664.00
2019-05-06T11:14:27.696Z,2660.00
2019-05-06T11:15:27.685Z,2660.00
2019-05-06T11:17:27.712Z,2652.00
2019-05-06T11:18:27.654Z,2652.00
2019-05-06T11:19:27.647Z,2648.00
2019-05-06T11:20:27.633Z,2648.00
2019-05-06T11:21:27.622Z,2640.00
2019-05-06T11:22:27.612Z,2640.00
2019-05-06T11:23:27.649Z,2636.00
2019-05-06T11:24:27.594Z,2636.00
2019-05-06T11:25:27.579Z,2632.00
2019-05-06T11:26:27.570Z,2628.00
2019-05-06T11:27:32.404Z,2628.00
2019-05-06T11:28:27.548Z,2628.00
2019-05-06T11:29:27.689Z,2620.00
2019-05-06T11:30:27.527Z,2620.00
2019-05-06T11:31:27.519Z,2616.00
2019-05-06T11:32:27.505Z,2620.00
2019-05-06T11:33:27.493Z,2612.00
2019-05-06T11:34:27.482Z,2608.00
2019-05-06T11:35:27.525Z,2608.00
2019-05-06T11:36:27.466Z,2604.00
2019-05-06T11:37:27.454Z,2600.00
2019-05-06T11:38:27.443Z,2600.00
2019-05-06T11:39:27.440Z,2596.00
2019-05-06T11:40:27.421Z,2592.00
2019-05-06T11:41:27.511Z,2584.00
2019-05-06T11:42:32.274Z,2584.00
2019-05-06T11:43:28.486Z,2576.00
2019-05-06T11:44:27.381Z,2576.00
2019-05-06T11:45:27.373Z,2572.00
2019-05-06T11:46:27.361Z,2568.00
2019-05-06T11:48:27.638Z,2560.00
2019-05-06T11:49:27.328Z,2560.00
2019-05-06T11:50:27.321Z,2548.00
2019-05-06T11:51:27.309Z,2544.00
2019-05-06T11:52:27.301Z,2544.00
2019-05-06T11:54:27.331Z,2536.00
2019-05-06T11:55:31.895Z,2532.00
2019-05-06T11:56:57.831Z,2524.00
2019-05-06T11:57:53.166Z,2520.00
2019-05-06T11:58:53.194Z,2516.00
2019-05-06T11:59:52.762Z,2508.00
2019-05-06T12:00:52.665Z,2504.00
2019-05-06T12:01:53.455Z,2500.00
2019-05-06T12:02:53.306Z,2492.00
2019-05-06T12:03:52.237Z,2488.00
2019-05-06T12:04:52.732Z,2480.00
2019-05-06T12:05:52.585Z,2476.00
2019-05-06T12:06:54.011Z,2472.00
2019-05-06T12:08:16.767Z,2460.00
2019-05-06T12:09:17.397Z,2456.00
2019-05-06T12:10:16.750Z,2452.00
2019-05-06T12:11:16.787Z,2448.00
2019-05-06T12:12:16.734Z,2440.00
2019-05-06T12:13:16.719Z,2436.00
2019-05-06T12:14:16.708Z,2428.00
2019-05-06T12:15:16.695Z,2424.00
2019-05-06T12:16:16.684Z,2420.00
2019-05-06T12:19:16.701Z,2412.00
2019-05-06T12:20:16.642Z,2404.00
2019-05-06T12:21:19.243Z,2392.00
2019-05-06T12:22:16.660Z,2388.00
2019-05-06T12:23:16.617Z,2380.00